Lake Lancelot, Illinois
Current Conditions -  °F | °C
As of 12:46 PM on Monday 26 Jan 2015 (Local Time) from KPIA Reporting Station
Haze Haze  
Wind Chill: 18°   Ceiling: 700
Heat Index: 27°   Visibility: 6mi
Dew Point: 23°   Wind: 9mph
Humidity: 85%   Direction: 160°SSE
Pressure: 29.88"   Gusts: NA
Location:  40.5976°N, 89.727°W
Report Text: KPIA 261846Z 16008KT 6SM BR BKN007 OVC075 M03/M05 A2988 RMK AO2 SNE24 P0000 T10281050
Loading
Personal Weather Stations






























Interactive Weather Map New forecast layout! Learn more

10-Day Weather Forecast

Advertisements
Track Severe Weather on mobile